Terminal Aerodrome Forecast
Issued by NWS Sterling, VA

Current Version | Previous Version | Text Only | Print | Product List | Glossary Off
Versions: 1 2 3 4 5 6 7 8 9 10 11 12 13 14 15 16 17 18 19 20 21 22 23

731
FTUS41 KLWX 281505 AAC
TAFDCA
TAF AMD
KDCA 281505Z 2815/2912 11007KT P6SM BKN040
     FM281700 12008KT P6SM VCSH BKN040
     FM282200 13008KT P6SM BKN035
     FM290100 12007KT P6SM -SHRA BKN025
     FM290400 13008KT 5SM -SHRA OVC008
     FM290800 14005KT P6SM OVC010
     FM291000 18005KT P6SM BKN010=

USA.gov is the U.S. government's official web portal to all federal, state and local government web resources and services.